sensor_id;sensor_type;location;lat;lon;timestamp;P1;durP1;ratioP1;P2;durP2;ratioP2
7485;SDS011;3784;54.098;9.998;2023-04-08T00:02:07;12.97;;;10.90;;
7485;SDS011;3784;54.098;9.998;2023-04-08T00:04:33;12.03;;;10.70;;
7485;SDS011;3784;54.098;9.998;2023-04-08T00:07:00;11.60;;;10.20;;
7485;SDS011;3784;54.098;9.998;2023-04-08T00:09:27;12.40;;;10.23;;
7485;SDS011;3784;54.098;9.998;2023-04-08T00:11:53;12.00;;;10.23;;
7485;SDS011;3784;54.098;9.998;2023-04-08T00:14:21;11.97;;;10.77;;
7485;SDS011;3784;54.098;9.998;2023-04-08T00:16:48;11.83;;;10.07;;
7485;SDS011;3784;54.098;9.998;2023-04-08T00:19:15;11.70;;;10.60;;
7485;SDS011;3784;54.098;9.998;2023-04-08T00:21:42;13.23;;;10.83;;
7485;SDS011;3784;54.098;9.998;2023-04-08T00:24:08;13.93;;;11.23;;
7485;SDS011;3784;54.098;9.998;2023-04-08T00:26:35;12.83;;;10.83;;
7485;SDS011;3784;54.098;9.998;2023-04-08T00:29:03;16.97;;;12.80;;
7485;SDS011;3784;54.098;9.998;2023-04-08T00:31:29;13.03;;;11.60;;
7485;SDS011;3784;54.098;9.998;2023-04-08T00:33:59;13.60;;;12.20;;
7485;SDS011;3784;54.098;9.998;2023-04-08T00:36:28;12.77;;;11.47;;
7485;SDS011;3784;54.098;9.998;2023-04-08T00:39:20;13.67;;;11.87;;
7485;SDS011;3784;54.098;9.998;2023-04-08T00:41:49;14.37;;;12.87;;
7485;SDS011;3784;54.098;9.998;2023-04-08T00:44:16;13.10;;;11.77;;
7485;SDS011;3784;54.098;9.998;2023-04-08T00:46:43;14.17;;;12.23;;
7485;SDS011;3784;54.098;9.998;2023-04-08T00:49:09;14.07;;;12.57;;
7485;SDS011;3784;54.098;9.998;2023-04-08T00:51:36;13.80;;;12.40;;
7485;SDS011;3784;54.098;9.998;2023-04-08T00:54:03;14.20;;;12.10;;
7485;SDS011;3784;54.098;9.998;2023-04-08T00:56:31;14.10;;;12.53;;
7485;SDS011;3784;54.098;9.998;2023-04-08T00:58:58;16.93;;;13.00;;
7485;SDS011;3784;54.098;9.998;2023-04-08T01:01:30;15.23;;;13.03;;
7485;SDS011;3784;54.098;9.998;2023-04-08T01:04:32;15.17;;;13.33;;
7485;SDS011;3784;54.098;9.998;2023-04-08T01:09:42;13.97;;;12.63;;
7485;SDS011;3784;54.098;9.998;2023-04-08T01:12:21;13.87;;;12.47;;
7485;SDS011;3784;54.098;9.998;2023-04-08T01:15:05;14.40;;;12.73;;
7485;SDS011;3784;54.098;9.998;2023-04-08T01:17:32;15.10;;;12.27;;
7485;SDS011;3784;54.098;9.998;2023-04-08T01:20:00;13.13;;;11.80;;
7485;SDS011;3784;54.098;9.998;2023-04-08T01:25:31;14.17;;;12.77;;
7485;SDS011;3784;54.098;9.998;2023-04-08T01:28:00;15.73;;;12.07;;
7485;SDS011;3784;54.098;9.998;2023-04-08T01:30:29;13.93;;;12.50;;
7485;SDS011;3784;54.098;9.998;2023-04-08T01:32:56;13.07;;;11.70;;
7485;SDS011;3784;54.098;9.998;2023-04-08T01:35:23;12.37;;;10.93;;
7485;SDS011;3784;54.098;9.998;2023-04-08T01:37:50;13.03;;;11.60;;
7485;SDS011;3784;54.098;9.998;2023-04-08T01:40:17;13.33;;;10.77;;
7485;SDS011;3784;54.098;9.998;2023-04-08T01:42:44;12.63;;;11.33;;
7485;SDS011;3784;54.098;9.998;2023-04-08T01:45:13;14.97;;;11.93;;
7485;SDS011;3784;54.098;9.998;2023-04-08T01:47:40;14.03;;;11.93;;
7485;SDS011;3784;54.098;9.998;2023-04-08T01:50:10;14.57;;;12.00;;
7485;SDS011;3784;54.098;9.998;2023-04-08T01:52:37;13.23;;;11.77;;
7485;SDS011;3784;54.098;9.998;2023-04-08T01:55:05;13.47;;;12.07;;
7485;SDS011;3784;54.098;9.998;2023-04-08T01:57:33;15.03;;;11.97;;
7485;SDS011;3784;54.098;9.998;2023-04-08T02:00:04;13.63;;;11.47;;
7485;SDS011;3784;54.098;9.998;2023-04-08T02:02:33;13.13;;;11.50;;
7485;SDS011;3784;54.098;9.998;2023-04-08T02:05:02;13.73;;;12.17;;
7485;SDS011;3784;54.098;9.998;2023-04-08T02:07:29;12.73;;;11.43;;
7485;SDS011;3784;54.098;9.998;2023-04-08T02:09:55;13.80;;;12.03;;
7485;SDS011;3784;54.098;9.998;2023-04-08T02:12:22;13.83;;;10.90;;
7485;SDS011;3784;54.098;9.998;2023-04-08T02:14:48;13.87;;;11.57;;
7485;SDS011;3784;54.098;9.998;2023-04-08T02:17:20;14.10;;;11.80;;
7485;SDS011;3784;54.098;9.998;2023-04-08T02:19:55;12.57;;;11.10;;
7485;SDS011;3784;54.098;9.998;2023-04-08T02:25:05;12.10;;;10.50;;
7485;SDS011;3784;54.098;9.998;2023-04-08T02:27:34;12.00;;;10.37;;
7485;SDS011;3784;54.098;9.998;2023-04-08T02:30:02;10.97;;;9.70;;
7485;SDS011;3784;54.098;9.998;2023-04-08T02:32:31;10.77;;;9.77;;
7485;SDS011;3784;54.098;9.998;2023-04-08T02:34:58;14.53;;;10.77;;
7485;SDS011;3784;54.098;9.998;2023-04-08T02:37:30;13.37;;;11.00;;
7485;SDS011;3784;54.098;9.998;2023-04-08T02:39:57;14.40;;;11.43;;
7485;SDS011;3784;54.098;9.998;2023-04-08T02:42:24;11.87;;;10.67;;
7485;SDS011;3784;54.098;9.998;2023-04-08T02:44:51;13.50;;;11.03;;
7485;SDS011;3784;54.098;9.998;2023-04-08T02:47:17;13.17;;;11.77;;
7485;SDS011;3784;54.098;9.998;2023-04-08T02:49:44;13.27;;;11.97;;
7485;SDS011;3784;54.098;9.998;2023-04-08T02:52:11;14.43;;;11.23;;
7485;SDS011;3784;54.098;9.998;2023-04-08T02:54:37;12.83;;;11.57;;
7485;SDS011;3784;54.098;9.998;2023-04-08T02:57:04;13.33;;;11.93;;
7485;SDS011;3784;54.098;9.998;2023-04-08T02:59:30;14.07;;;12.50;;
7485;SDS011;3784;54.098;9.998;2023-04-08T03:01:57;14.77;;;13.27;;
7485;SDS011;3784;54.098;9.998;2023-04-08T03:04:23;14.47;;;12.70;;
7485;SDS011;3784;54.098;9.998;2023-04-08T03:06:50;14.13;;;12.50;;
7485;SDS011;3784;54.098;9.998;2023-04-08T03:09:16;14.23;;;12.60;;
7485;SDS011;3784;54.098;9.998;2023-04-08T03:11:43;14.27;;;12.07;;
7485;SDS011;3784;54.098;9.998;2023-04-08T03:14:10;14.90;;;12.63;;
7485;SDS011;3784;54.098;9.998;2023-04-08T03:16:36;16.83;;;13.67;;
7485;SDS011;3784;54.098;9.998;2023-04-08T03:19:03;18.63;;;13.80;;
7485;SDS011;3784;54.098;9.998;2023-04-08T03:21:29;19.00;;;13.27;;
7485;SDS011;3784;54.098;9.998;2023-04-08T03:23:56;17.93;;;13.03;;
7485;SDS011;3784;54.098;9.998;2023-04-08T03:26:23;17.73;;;14.77;;
7485;SDS011;3784;54.098;9.998;2023-04-08T03:28:52;14.73;;;12.77;;
7485;SDS011;3784;54.098;9.998;2023-04-08T03:31:18;16.00;;;13.60;;
7485;SDS011;3784;54.098;9.998;2023-04-08T03:33:46;19.47;;;14.03;;
7485;SDS011;3784;54.098;9.998;2023-04-08T03:36:13;17.17;;;13.53;;
7485;SDS011;3784;54.098;9.998;2023-04-08T03:38:39;17.50;;;15.20;;
7485;SDS011;3784;54.098;9.998;2023-04-08T03:41:06;17.30;;;14.37;;
7485;SDS011;3784;54.098;9.998;2023-04-08T03:43:32;17.33;;;15.13;;
7485;SDS011;3784;54.098;9.998;2023-04-08T03:46:01;17.70;;;15.37;;
7485;SDS011;3784;54.098;9.998;2023-04-08T03:48:27;18.33;;;15.53;;
7485;SDS011;3784;54.098;9.998;2023-04-08T03:50:54;19.07;;;17.00;;
7485;SDS011;3784;54.098;9.998;2023-04-08T03:53:20;20.70;;;17.50;;
7485;SDS011;3784;54.098;9.998;2023-04-08T03:55:47;19.70;;;17.47;;
7485;SDS011;3784;54.098;9.998;2023-04-08T03:58:16;22.07;;;18.63;;
7485;SDS011;3784;54.098;9.998;2023-04-08T04:00:42;25.00;;;19.47;;
7485;SDS011;3784;54.098;9.998;2023-04-08T04:03:08;22.07;;;19.10;;
7485;SDS011;3784;54.098;9.998;2023-04-08T04:05:38;25.53;;;21.43;;
7485;SDS011;3784;54.098;9.998;2023-04-08T04:08:05;24.47;;;20.83;;
7485;SDS011;3784;54.098;9.998;2023-04-08T04:10:32;24.77;;;20.77;;
7485;SDS011;3784;54.098;9.998;2023-04-08T04:12:58;26.93;;;21.97;;
7485;SDS011;3784;54.098;9.998;2023-04-08T04:15:25;28.20;;;22.67;;
7485;SDS011;3784;54.098;9.998;2023-04-08T04:17:52;30.70;;;22.93;;
7485;SDS011;3784;54.098;9.998;2023-04-08T04:20:18;27.80;;;22.90;;
7485;SDS011;3784;54.098;9.998;2023-04-08T04:22:46;28.63;;;23.73;;
7485;SDS011;3784;54.098;9.998;2023-04-08T04:25:13;27.67;;;23.30;;
7485;SDS011;3784;54.098;9.998;2023-04-08T04:27:40;25.47;;;22.50;;
7485;SDS011;3784;54.098;9.998;2023-04-08T04:30:06;25.27;;;20.73;;
7485;SDS011;3784;54.098;9.998;2023-04-08T04:32:34;23.30;;;20.80;;
7485;SDS011;3784;54.098;9.998;2023-04-08T04:35:01;24.60;;;20.43;;
7485;SDS011;3784;54.098;9.998;2023-04-08T04:37:27;24.27;;;19.67;;
7485;SDS011;3784;54.098;9.998;2023-04-08T04:39:54;25.63;;;21.57;;
7485;SDS011;3784;54.098;9.998;2023-04-08T04:42:20;26.03;;;20.77;;
7485;SDS011;3784;54.098;9.998;2023-04-08T04:44:47;22.83;;;18.90;;
7485;SDS011;3784;54.098;9.998;2023-04-08T04:47:13;27.30;;;21.90;;
7485;SDS011;3784;54.098;9.998;2023-04-08T04:49:41;24.10;;;20.53;;
7485;SDS011;3784;54.098;9.998;2023-04-08T04:52:08;25.17;;;20.83;;
7485;SDS011;3784;54.098;9.998;2023-04-08T04:54:34;24.13;;;20.47;;
7485;SDS011;3784;54.098;9.998;2023-04-08T04:57:01;25.87;;;21.47;;
7485;SDS011;3784;54.098;9.998;2023-04-08T04:59:27;22.57;;;19.97;;
7485;SDS011;3784;54.098;9.998;2023-04-08T05:01:54;24.27;;;19.23;;
7485;SDS011;3784;54.098;9.998;2023-04-08T05:04:23;22.37;;;19.23;;
7485;SDS011;3784;54.098;9.998;2023-04-08T05:06:50;24.70;;;18.80;;
7485;SDS011;3784;54.098;9.998;2023-04-08T05:09:17;26.80;;;18.50;;
7485;SDS011;3784;54.098;9.998;2023-04-08T05:11:43;24.17;;;19.47;;
7485;SDS011;3784;54.098;9.998;2023-04-08T05:14:10;23.73;;;19.20;;
7485;SDS011;3784;54.098;9.998;2023-04-08T05:16:36;21.73;;;18.20;;
7485;SDS011;3784;54.098;9.998;2023-04-08T05:19:04;26.13;;;18.90;;
7485;SDS011;3784;54.098;9.998;2023-04-08T05:21:31;26.90;;;20.00;;
7485;SDS011;3784;54.098;9.998;2023-04-08T05:23:57;24.87;;;20.23;;
7485;SDS011;3784;54.098;9.998;2023-04-08T05:26:24;22.90;;;18.37;;
7485;SDS011;3784;54.098;9.998;2023-04-08T05:28:51;26.43;;;19.73;;
7485;SDS011;3784;54.098;9.998;2023-04-08T05:31:18;21.37;;;17.70;;
7485;SDS011;3784;54.098;9.998;2023-04-08T05:33:45;24.40;;;18.57;;
7485;SDS011;3784;54.098;9.998;2023-04-08T05:36:13;27.33;;;18.57;;
7485;SDS011;3784;54.098;9.998;2023-04-08T05:38:39;24.97;;;19.60;;
7485;SDS011;3784;54.098;9.998;2023-04-08T05:41:08;24.07;;;20.27;;
7485;SDS011;3784;54.098;9.998;2023-04-08T05:43:35;29.53;;;21.17;;
7485;SDS011;3784;54.098;9.998;2023-04-08T05:46:05;27.73;;;21.37;;
7485;SDS011;3784;54.098;9.998;2023-04-08T05:48:33;25.03;;;20.30;;
7485;SDS011;3784;54.098;9.998;2023-04-08T05:50:59;28.60;;;21.13;;
7485;SDS011;3784;54.098;9.998;2023-04-08T05:53:26;28.27;;;21.37;;
7485;SDS011;3784;54.098;9.998;2023-04-08T05:55:52;28.07;;;20.63;;
7485;SDS011;3784;54.098;9.998;2023-04-08T05:58:19;29.30;;;21.00;;
7485;SDS011;3784;54.098;9.998;2023-04-08T06:00:45;30.57;;;22.03;;
7485;SDS011;3784;54.098;9.998;2023-04-08T06:03:12;22.60;;;17.43;;
7485;SDS011;3784;54.098;9.998;2023-04-08T06:05:39;24.63;;;16.57;;
7485;SDS011;3784;54.098;9.998;2023-04-08T06:08:06;20.87;;;16.93;;
7485;SDS011;3784;54.098;9.998;2023-04-08T06:10:32;21.63;;;17.20;;
7485;SDS011;3784;54.098;9.998;2023-04-08T06:12:59;20.50;;;18.17;;
7485;SDS011;3784;54.098;9.998;2023-04-08T06:15:25;23.80;;;19.03;;
7485;SDS011;3784;54.098;9.998;2023-04-08T06:17:53;25.93;;;19.50;;
7485;SDS011;3784;54.098;9.998;2023-04-08T06:20:19;23.33;;;18.70;;
7485;SDS011;3784;54.098;9.998;2023-04-08T06:22:46;25.77;;;19.30;;
7485;SDS011;3784;54.098;9.998;2023-04-08T06:25:12;24.27;;;19.73;;
7485;SDS011;3784;54.098;9.998;2023-04-08T06:27:39;28.40;;;19.10;;
7485;SDS011;3784;54.098;9.998;2023-04-08T06:30:05;26.37;;;21.27;;
7485;SDS011;3784;54.098;9.998;2023-04-08T06:32:32;23.97;;;19.63;;
7485;SDS011;3784;54.098;9.998;2023-04-08T06:34:59;23.53;;;17.90;;
7485;SDS011;3784;54.098;9.998;2023-04-08T06:37:26;24.03;;;18.53;;
7485;SDS011;3784;54.098;9.998;2023-04-08T06:39:52;25.33;;;20.00;;
7485;SDS011;3784;54.098;9.998;2023-04-08T06:42:19;25.90;;;20.90;;
7485;SDS011;3784;54.098;9.998;2023-04-08T06:44:48;23.77;;;19.47;;
7485;SDS011;3784;54.098;9.998;2023-04-08T06:47:14;24.63;;;19.23;;
7485;SDS011;3784;54.098;9.998;2023-04-08T06:49:42;26.27;;;19.73;;
7485;SDS011;3784;54.098;9.998;2023-04-08T06:52:08;23.87;;;20.23;;
7485;SDS011;3784;54.098;9.998;2023-04-08T06:54:35;26.30;;;21.50;;
7485;SDS011;3784;54.098;9.998;2023-04-08T06:57:01;26.50;;;20.37;;
7485;SDS011;3784;54.098;9.998;2023-04-08T06:59:29;25.47;;;20.63;;
7485;SDS011;3784;54.098;9.998;2023-04-08T07:01:56;27.80;;;20.90;;
7485;SDS011;3784;54.098;9.998;2023-04-08T07:04:22;26.03;;;21.50;;
7485;SDS011;3784;54.098;9.998;2023-04-08T07:06:49;30.20;;;23.47;;
7485;SDS011;3784;54.098;9.998;2023-04-08T07:09:16;26.27;;;20.33;;
7485;SDS011;3784;54.098;9.998;2023-04-08T07:11:42;25.53;;;20.77;;
7485;SDS011;3784;54.098;9.998;2023-04-08T07:14:09;26.17;;;20.20;;
7485;SDS011;3784;54.098;9.998;2023-04-08T07:16:37;24.07;;;19.90;;
7485;SDS011;3784;54.098;9.998;2023-04-08T07:19:03;27.00;;;20.90;;
7485;SDS011;3784;54.098;9.998;2023-04-08T07:21:30;24.37;;;19.80;;
7485;SDS011;3784;54.098;9.998;2023-04-08T07:23:56;24.33;;;20.10;;
7485;SDS011;3784;54.098;9.998;2023-04-08T07:26:23;26.03;;;18.97;;
7485;SDS011;3784;54.098;9.998;2023-04-08T07:28:49;22.27;;;18.90;;
7485;SDS011;3784;54.098;9.998;2023-04-08T07:31:17;26.93;;;19.87;;
7485;SDS011;3784;54.098;9.998;2023-04-08T07:33:44;24.23;;;19.37;;
7485;SDS011;3784;54.098;9.998;2023-04-08T07:36:11;25.73;;;20.13;;
7485;SDS011;3784;54.098;9.998;2023-04-08T07:38:38;21.87;;;17.70;;
7485;SDS011;3784;54.098;9.998;2023-04-08T07:41:05;19.73;;;17.67;;
7485;SDS011;3784;54.098;9.998;2023-04-08T07:43:32;29.73;;;20.33;;
7485;SDS011;3784;54.098;9.998;2023-04-08T07:46:05;24.97;;;22.27;;
7485;SDS011;3784;54.098;9.998;2023-04-08T07:48:32;35.30;;;23.17;;
7485;SDS011;3784;54.098;9.998;2023-04-08T07:51:02;41.50;;;27.07;;
7485;SDS011;3784;54.098;9.998;2023-04-08T07:53:36;24.60;;;19.50;;
7485;SDS011;3784;54.098;9.998;2023-04-08T07:56:02;33.63;;;23.50;;
7485;SDS011;3784;54.098;9.998;2023-04-08T07:58:36;31.90;;;25.93;;
7485;SDS011;3784;54.098;9.998;2023-04-08T08:01:03;21.50;;;18.40;;
7485;SDS011;3784;54.098;9.998;2023-04-08T08:03:30;21.07;;;16.77;;
7485;SDS011;3784;54.098;9.998;2023-04-08T08:05:59;18.30;;;16.07;;
7485;SDS011;3784;54.098;9.998;2023-04-08T08:08:25;18.53;;;15.73;;
7485;SDS011;3784;54.098;9.998;2023-04-08T08:10:52;19.73;;;16.50;;
7485;SDS011;3784;54.098;9.998;2023-04-08T08:13:18;18.07;;;16.07;;
7485;SDS011;3784;54.098;9.998;2023-04-08T08:15:50;16.13;;;14.30;;
7485;SDS011;3784;54.098;9.998;2023-04-08T08:18:17;22.43;;;17.60;;
7485;SDS011;3784;54.098;9.998;2023-04-08T08:20:44;15.83;;;14.13;;
7485;SDS011;3784;54.098;9.998;2023-04-08T08:23:11;18.83;;;14.87;;
7485;SDS011;3784;54.098;9.998;2023-04-08T08:25:37;16.63;;;14.10;;
7485;SDS011;3784;54.098;9.998;2023-04-08T08:28:04;17.83;;;13.60;;
7485;SDS011;3784;54.098;9.998;2023-04-08T08:30:30;19.80;;;14.07;;
7485;SDS011;3784;54.098;9.998;2023-04-08T08:32:59;22.07;;;17.47;;
7485;SDS011;3784;54.098;9.998;2023-04-08T08:35:26;26.13;;;19.00;;
7485;SDS011;3784;54.098;9.998;2023-04-08T08:37:52;21.33;;;17.07;;
7485;SDS011;3784;54.098;9.998;2023-04-08T08:40:19;25.27;;;18.20;;
7485;SDS011;3784;54.098;9.998;2023-04-08T08:42:49;15.63;;;13.53;;
7485;SDS011;3784;54.098;9.998;2023-04-08T08:45:20;15.77;;;12.53;;
7485;SDS011;3784;54.098;9.998;2023-04-08T08:47:47;15.20;;;11.93;;
7485;SDS011;3784;54.098;9.998;2023-04-08T08:50:16;13.57;;;11.70;;
7485;SDS011;3784;54.098;9.998;2023-04-08T08:52:52;12.33;;;10.10;;
7485;SDS011;3784;54.098;9.998;2023-04-08T08:55:18;13.77;;;10.40;;
7485;SDS011;3784;54.098;9.998;2023-04-08T08:58:05;13.07;;;9.50;;
7485;SDS011;3784;54.098;9.998;2023-04-08T09:00:36;12.73;;;9.87;;
7485;SDS011;3784;54.098;9.998;2023-04-08T09:03:14;11.70;;;9.60;;
7485;SDS011;3784;54.098;9.998;2023-04-08T09:05:50;10.20;;;9.10;;
7485;SDS011;3784;54.098;9.998;2023-04-08T09:08:27;10.63;;;9.50;;
7485;SDS011;3784;54.098;9.998;2023-04-08T09:11:13;11.67;;;9.43;;
7485;SDS011;3784;54.098;9.998;2023-04-08T09:13:41;9.37;;;8.47;;
7485;SDS011;3784;54.098;9.998;2023-04-08T09:16:09;13.50;;;11.10;;
7485;SDS011;3784;54.098;9.998;2023-04-08T09:18:38;13.87;;;10.60;;
7485;SDS011;3784;54.098;9.998;2023-04-08T09:21:25;12.00;;;10.07;;
7485;SDS011;3784;54.098;9.998;2023-04-08T09:23:58;11.50;;;10.03;;
7485;SDS011;3784;54.098;9.998;2023-04-08T09:26:24;11.03;;;9.93;;
7485;SDS011;3784;54.098;9.998;2023-04-08T09:29:02;10.63;;;9.63;;
7485;SDS011;3784;54.098;9.998;2023-04-08T09:31:53;9.70;;;8.70;;
7485;SDS011;3784;54.098;9.998;2023-04-08T09:34:22;10.83;;;9.80;;
7485;SDS011;3784;54.098;9.998;2023-04-08T09:36:49;12.50;;;9.50;;
7485;SDS011;3784;54.098;9.998;2023-04-08T09:39:16;10.43;;;9.20;;
7485;SDS011;3784;54.098;9.998;2023-04-08T09:41:43;10.03;;;8.20;;
7485;SDS011;3784;54.098;9.998;2023-04-08T09:44:10;11.37;;;8.47;;
7485;SDS011;3784;54.098;9.998;2023-04-08T09:57:20;10.27;;;8.70;;
7485;SDS011;3784;54.098;9.998;2023-04-08T09:59:53;9.10;;;8.27;;
7485;SDS011;3784;54.098;9.998;2023-04-08T10:02:53;10.60;;;9.50;;
7485;SDS011;3784;54.098;9.998;2023-04-08T10:05:23;10.37;;;9.33;;
7485;SDS011;3784;54.098;9.998;2023-04-08T10:07:50;13.67;;;10.07;;
7485;SDS011;3784;54.098;9.998;2023-04-08T10:10:17;10.73;;;9.63;;
7485;SDS011;3784;54.098;9.998;2023-04-08T10:12:44;11.40;;;9.63;;
7485;SDS011;3784;54.098;9.998;2023-04-08T10:15:23;11.17;;;10.07;;
7485;SDS011;3784;54.098;9.998;2023-04-08T10:17:53;13.57;;;10.47;;
7485;SDS011;3784;54.098;9.998;2023-04-08T10:23:05;13.50;;;9.80;;
7485;SDS011;3784;54.098;9.998;2023-04-08T10:25:36;11.30;;;9.33;;
7485;SDS011;3784;54.098;9.998;2023-04-08T10:30:43;12.40;;;9.90;;
7485;SDS011;3784;54.098;9.998;2023-04-08T10:36:11;12.57;;;9.87;;
7485;SDS011;3784;54.098;9.998;2023-04-08T10:38:38;11.30;;;9.90;;
7485;SDS011;3784;54.098;9.998;2023-04-08T10:41:06;11.73;;;9.47;;
7485;SDS011;3784;54.098;9.998;2023-04-08T10:43:33;11.63;;;9.43;;
7485;SDS011;3784;54.098;9.998;2023-04-08T10:46:01;11.33;;;9.83;;
7485;SDS011;3784;54.098;9.998;2023-04-08T10:48:28;10.00;;;9.00;;
7485;SDS011;3784;54.098;9.998;2023-04-08T10:50:58;13.03;;;9.53;;
7485;SDS011;3784;54.098;9.998;2023-04-08T10:53:26;12.23;;;9.93;;
7485;SDS011;3784;54.098;9.998;2023-04-08T10:56:07;13.00;;;10.07;;
7485;SDS011;3784;54.098;9.998;2023-04-08T10:58:46;13.80;;;10.47;;
7485;SDS011;3784;54.098;9.998;2023-04-08T11:01:17;11.90;;;9.43;;
7485;SDS011;3784;54.098;9.998;2023-04-08T11:03:44;12.37;;;10.33;;
7485;SDS011;3784;54.098;9.998;2023-04-08T11:06:11;10.70;;;9.67;;
7485;SDS011;3784;54.098;9.998;2023-04-08T11:08:37;12.80;;;10.53;;
7485;SDS011;3784;54.098;9.998;2023-04-08T11:11:04;15.17;;;11.07;;
7485;SDS011;3784;54.098;9.998;2023-04-08T11:13:39;12.47;;;9.57;;
7485;SDS011;3784;54.098;9.998;2023-04-08T11:16:18;16.93;;;11.43;;
7485;SDS011;3784;54.098;9.998;2023-04-08T11:18:49;14.47;;;10.83;;
7485;SDS011;3784;54.098;9.998;2023-04-08T11:21:16;13.13;;;11.00;;
7485;SDS011;3784;54.098;9.998;2023-04-08T11:23:42;12.90;;;9.63;;
7485;SDS011;3784;54.098;9.998;2023-04-08T11:26:09;13.37;;;10.17;;
7485;SDS011;3784;54.098;9.998;2023-04-08T11:28:36;11.57;;;8.93;;
7485;SDS011;3784;54.098;9.998;2023-04-08T11:31:02;13.37;;;9.40;;
7485;SDS011;3784;54.098;9.998;2023-04-08T11:33:30;12.10;;;9.87;;
7485;SDS011;3784;54.098;9.998;2023-04-08T11:35:57;14.03;;;10.50;;
7485;SDS011;3784;54.098;9.998;2023-04-08T11:38:26;12.37;;;10.50;;
7485;SDS011;3784;54.098;9.998;2023-04-08T11:40:54;11.33;;;10.17;;
7485;SDS011;3784;54.098;9.998;2023-04-08T11:43:24;9.83;;;8.90;;
7485;SDS011;3784;54.098;9.998;2023-04-08T11:45:51;12.13;;;9.67;;
7485;SDS011;3784;54.098;9.998;2023-04-08T11:48:18;11.73;;;10.10;;
7485;SDS011;3784;54.098;9.998;2023-04-08T11:50:44;14.63;;;10.40;;
7485;SDS011;3784;54.098;9.998;2023-04-08T11:53:20;13.17;;;11.27;;
7485;SDS011;3784;54.098;9.998;2023-04-08T11:55:50;13.17;;;10.23;;
7485;SDS011;3784;54.098;9.998;2023-04-08T11:58:16;13.67;;;10.10;;
7485;SDS011;3784;54.098;9.998;2023-04-08T12:00:43;11.73;;;10.37;;
7485;SDS011;3784;54.098;9.998;2023-04-08T12:03:10;10.80;;;9.70;;
7485;SDS011;3784;54.098;9.998;2023-04-08T12:05:38;12.27;;;10.27;;
7485;SDS011;3784;54.098;9.998;2023-04-08T12:08:05;12.43;;;11.13;;
7485;SDS011;3784;54.098;9.998;2023-04-08T12:10:32;11.67;;;9.90;;
7485;SDS011;3784;54.098;9.998;2023-04-08T12:12:58;11.60;;;10.20;;
7485;SDS011;3784;54.098;9.998;2023-04-08T12:15:25;11.57;;;10.20;;
7485;SDS011;3784;54.098;9.998;2023-04-08T12:17:52;15.40;;;10.40;;
7485;SDS011;3784;54.098;9.998;2023-04-08T12:20:18;11.07;;;9.97;;
7485;SDS011;3784;54.098;9.998;2023-04-08T12:22:45;11.43;;;10.33;;
7485;SDS011;3784;54.098;9.998;2023-04-08T12:25:12;11.40;;;10.23;;
7485;SDS011;3784;54.098;9.998;2023-04-08T12:27:38;17.17;;;11.57;;
7485;SDS011;3784;54.098;9.998;2023-04-08T12:30:05;13.53;;;11.40;;
7485;SDS011;3784;54.098;9.998;2023-04-08T12:32:32;10.97;;;9.93;;
7485;SDS011;3784;54.098;9.998;2023-04-08T12:34:59;15.77;;;11.37;;
7485;SDS011;3784;54.098;9.998;2023-04-08T12:37:26;11.63;;;10.43;;
7485;SDS011;3784;54.098;9.998;2023-04-08T12:39:53;13.37;;;10.73;;
7485;SDS011;3784;54.098;9.998;2023-04-08T12:42:19;12.17;;;11.00;;
7485;SDS011;3784;54.098;9.998;2023-04-08T12:44:48;12.03;;;10.83;;
7485;SDS011;3784;54.098;9.998;2023-04-08T12:47:14;11.80;;;10.70;;
7485;SDS011;3784;54.098;9.998;2023-04-08T12:49:41;11.37;;;10.03;;
7485;SDS011;3784;54.098;9.998;2023-04-08T12:52:15;12.83;;;11.63;;
7485;SDS011;3784;54.098;9.998;2023-04-08T12:54:43;12.70;;;10.27;;
7485;SDS011;3784;54.098;9.998;2023-04-08T12:57:10;14.53;;;11.13;;
7485;SDS011;3784;54.098;9.998;2023-04-08T12:59:38;12.73;;;11.10;;
7485;SDS011;3784;54.098;9.998;2023-04-08T13:02:05;11.10;;;9.90;;
7485;SDS011;3784;54.098;9.998;2023-04-08T13:04:33;11.60;;;10.40;;
7485;SDS011;3784;54.098;9.998;2023-04-08T13:07:00;12.50;;;11.27;;
7485;SDS011;3784;54.098;9.998;2023-04-08T13:09:26;13.73;;;10.87;;
7485;SDS011;3784;54.098;9.998;2023-04-08T13:11:53;11.80;;;10.60;;
7485;SDS011;3784;54.098;9.998;2023-04-08T13:14:20;13.50;;;10.27;;
7485;SDS011;3784;54.098;9.998;2023-04-08T13:16:46;11.93;;;10.63;;
7485;SDS011;3784;54.098;9.998;2023-04-08T13:19:13;10.80;;;9.70;;
7485;SDS011;3784;54.098;9.998;2023-04-08T13:21:40;10.70;;;9.63;;
7485;SDS011;3784;54.098;9.998;2023-04-08T13:24:06;11.77;;;10.00;;
7485;SDS011;3784;54.098;9.998;2023-04-08T13:26:33;12.53;;;10.50;;
7485;SDS011;3784;54.098;9.998;2023-04-08T13:28:59;11.00;;;9.90;;
7485;SDS011;3784;54.098;9.998;2023-04-08T13:31:26;12.17;;;10.03;;
7485;SDS011;3784;54.098;9.998;2023-04-08T13:33:53;12.43;;;11.33;;
7485;SDS011;3784;54.098;9.998;2023-04-08T13:36:23;11.57;;;10.37;;
7485;SDS011;3784;54.098;9.998;2023-04-08T13:38:49;11.60;;;10.33;;
7485;SDS011;3784;54.098;9.998;2023-04-08T13:41:17;12.60;;;11.30;;
7485;SDS011;3784;54.098;9.998;2023-04-08T13:43:46;18.00;;;13.47;;
7485;SDS011;3784;54.098;9.998;2023-04-08T13:46:12;13.73;;;11.10;;
7485;SDS011;3784;54.098;9.998;2023-04-08T13:48:39;11.97;;;10.27;;
7485;SDS011;3784;54.098;9.998;2023-04-08T13:51:06;11.23;;;10.17;;
7485;SDS011;3784;54.098;9.998;2023-04-08T13:53:32;11.23;;;9.97;;
7485;SDS011;3784;54.098;9.998;2023-04-08T13:55:59;11.20;;;9.90;;
7485;SDS011;3784;54.098;9.998;2023-04-08T13:58:26;11.60;;;9.80;;
7485;SDS011;3784;54.098;9.998;2023-04-08T14:00:52;14.53;;;10.90;;
7485;SDS011;3784;54.098;9.998;2023-04-08T14:03:19;12.10;;;10.33;;
7485;SDS011;3784;54.098;9.998;2023-04-08T14:05:46;12.67;;;10.40;;
7485;SDS011;3784;54.098;9.998;2023-04-08T14:08:12;11.60;;;10.40;;
7485;SDS011;3784;54.098;9.998;2023-04-08T14:10:39;11.30;;;10.03;;
7485;SDS011;3784;54.098;9.998;2023-04-08T14:13:07;13.97;;;10.77;;
7485;SDS011;3784;54.098;9.998;2023-04-08T14:15:34;10.90;;;9.83;;
7485;SDS011;3784;54.098;9.998;2023-04-08T14:18:00;12.07;;;10.80;;
7485;SDS011;3784;54.098;9.998;2023-04-08T14:20:27;12.50;;;11.20;;
7485;SDS011;3784;54.098;9.998;2023-04-08T14:22:54;13.13;;;11.83;;
7485;SDS011;3784;54.098;9.998;2023-04-08T14:25:22;13.63;;;11.23;;
7485;SDS011;3784;54.098;9.998;2023-04-08T14:27:48;11.87;;;10.77;;
7485;SDS011;3784;54.098;9.998;2023-04-08T14:30:24;11.77;;;10.63;;
7485;SDS011;3784;54.098;9.998;2023-04-08T14:32:52;12.23;;;11.00;;
7485;SDS011;3784;54.098;9.998;2023-04-08T14:35:20;11.63;;;10.50;;
7485;SDS011;3784;54.098;9.998;2023-04-08T14:37:46;13.60;;;10.23;;
7485;SDS011;3784;54.098;9.998;2023-04-08T14:40:13;13.40;;;10.97;;
7485;SDS011;3784;54.098;9.998;2023-04-08T14:42:40;10.97;;;10.07;;
7485;SDS011;3784;54.098;9.998;2023-04-08T14:45:06;14.00;;;10.90;;
7485;SDS011;3784;54.098;9.998;2023-04-08T14:47:33;13.00;;;11.60;;
7485;SDS011;3784;54.098;9.998;2023-04-08T14:50:00;15.20;;;10.57;;
7485;SDS011;3784;54.098;9.998;2023-04-08T14:52:27;11.87;;;10.43;;
7485;SDS011;3784;54.098;9.998;2023-04-08T14:54:53;12.37;;;11.10;;
7485;SDS011;3784;54.098;9.998;2023-04-08T14:57:20;10.90;;;9.90;;
7485;SDS011;3784;54.098;9.998;2023-04-08T14:59:46;11.83;;;10.63;;
7485;SDS011;3784;54.098;9.998;2023-04-08T15:02:13;13.00;;;11.03;;
7485;SDS011;3784;54.098;9.998;2023-04-08T15:04:40;12.03;;;10.90;;
7485;SDS011;3784;54.098;9.998;2023-04-08T15:07:07;11.83;;;10.73;;
7485;SDS011;3784;54.098;9.998;2023-04-08T15:09:34;15.23;;;11.30;;
7485;SDS011;3784;54.098;9.998;2023-04-08T15:12:00;12.90;;;10.77;;
7485;SDS011;3784;54.098;9.998;2023-04-08T15:14:28;11.67;;;10.57;;
7485;SDS011;3784;54.098;9.998;2023-04-08T15:16:54;11.90;;;10.70;;
7485;SDS011;3784;54.098;9.998;2023-04-08T15:19:21;12.43;;;11.13;;
7485;SDS011;3784;54.098;9.998;2023-04-08T15:21:48;12.30;;;10.47;;
7485;SDS011;3784;54.098;9.998;2023-04-08T15:24:14;12.07;;;10.57;;